sensor_id;sensor_type;location;lat;lon;timestamp;P1;durP1;ratioP1;P2;durP2;ratioP2
85156;SDS011;75524;50.698;7.196;2024-03-06T00:02:20;26.03;;;9.57;;
85156;SDS011;75524;50.698;7.196;2024-03-06T00:04:46;15.97;;;7.50;;
85156;SDS011;75524;50.698;7.196;2024-03-06T00:07:13;16.47;;;7.47;;
85156;SDS011;75524;50.698;7.196;2024-03-06T00:09:39;15.40;;;5.80;;
85156;SDS011;75524;50.698;7.196;2024-03-06T00:12:06;16.50;;;6.20;;
85156;SDS011;75524;50.698;7.196;2024-03-06T00:14:32;11.63;;;6.20;;
85156;SDS011;75524;50.698;7.196;2024-03-06T00:16:58;15.20;;;6.50;;
85156;SDS011;75524;50.698;7.196;2024-03-06T00:19:25;16.97;;;7.30;;
85156;SDS011;75524;50.698;7.196;2024-03-06T00:21:51;15.57;;;6.60;;
85156;SDS011;75524;50.698;7.196;2024-03-06T00:24:18;13.43;;;6.90;;
85156;SDS011;75524;50.698;7.196;2024-03-06T00:26:44;18.20;;;7.53;;
85156;SDS011;75524;50.698;7.196;2024-03-06T00:29:12;15.33;;;7.10;;
85156;SDS011;75524;50.698;7.196;2024-03-06T00:31:42;14.73;;;6.63;;
85156;SDS011;75524;50.698;7.196;2024-03-06T00:34:10;16.23;;;6.40;;
85156;SDS011;75524;50.698;7.196;2024-03-06T00:36:37;18.00;;;7.57;;
85156;SDS011;75524;50.698;7.196;2024-03-06T00:39:04;17.70;;;7.83;;
85156;SDS011;75524;50.698;7.196;2024-03-06T00:41:31;30.07;;;6.23;;
85156;SDS011;75524;50.698;7.196;2024-03-06T00:43:57;12.87;;;5.47;;
85156;SDS011;75524;50.698;7.196;2024-03-06T00:46:24;16.57;;;7.43;;
85156;SDS011;75524;50.698;7.196;2024-03-06T00:48:50;13.00;;;5.97;;
85156;SDS011;75524;50.698;7.196;2024-03-06T00:51:16;16.07;;;6.37;;
85156;SDS011;75524;50.698;7.196;2024-03-06T00:53:49;16.40;;;6.93;;
85156;SDS011;75524;50.698;7.196;2024-03-06T00:56:16;13.27;;;5.97;;
85156;SDS011;75524;50.698;7.196;2024-03-06T00:58:42;18.67;;;6.40;;
85156;SDS011;75524;50.698;7.196;2024-03-06T01:01:08;16.37;;;5.90;;
85156;SDS011;75524;50.698;7.196;2024-03-06T01:03:37;11.63;;;4.70;;
85156;SDS011;75524;50.698;7.196;2024-03-06T01:06:03;13.33;;;5.67;;
85156;SDS011;75524;50.698;7.196;2024-03-06T01:08:30;10.90;;;5.20;;
85156;SDS011;75524;50.698;7.196;2024-03-06T01:10:58;10.17;;;5.10;;
85156;SDS011;75524;50.698;7.196;2024-03-06T01:13:24;8.70;;;5.17;;
85156;SDS011;75524;50.698;7.196;2024-03-06T01:15:50;15.80;;;6.30;;
85156;SDS011;75524;50.698;7.196;2024-03-06T01:18:17;12.07;;;4.57;;
85156;SDS011;75524;50.698;7.196;2024-03-06T01:20:44;10.27;;;5.57;;
85156;SDS011;75524;50.698;7.196;2024-03-06T01:23:10;15.10;;;6.00;;
85156;SDS011;75524;50.698;7.196;2024-03-06T01:25:37;13.53;;;4.60;;
85156;SDS011;75524;50.698;7.196;2024-03-06T01:28:03;13.50;;;6.37;;
85156;SDS011;75524;50.698;7.196;2024-03-06T01:30:30;11.33;;;5.63;;
85156;SDS011;75524;50.698;7.196;2024-03-06T01:32:56;9.50;;;4.90;;
85156;SDS011;75524;50.698;7.196;2024-03-06T01:35:23;12.13;;;4.80;;
85156;SDS011;75524;50.698;7.196;2024-03-06T01:37:50;10.70;;;4.97;;
85156;SDS011;75524;50.698;7.196;2024-03-06T01:40:17;7.53;;;3.97;;
85156;SDS011;75524;50.698;7.196;2024-03-06T01:42:43;10.83;;;4.03;;
85156;SDS011;75524;50.698;7.196;2024-03-06T01:45:13;11.23;;;5.07;;
85156;SDS011;75524;50.698;7.196;2024-03-06T01:47:39;13.80;;;3.87;;
85156;SDS011;75524;50.698;7.196;2024-03-06T01:50:06;10.83;;;4.23;;
85156;SDS011;75524;50.698;7.196;2024-03-06T01:52:37;8.47;;;4.33;;
85156;SDS011;75524;50.698;7.196;2024-03-06T01:55:06;9.70;;;4.73;;
85156;SDS011;75524;50.698;7.196;2024-03-06T01:57:33;8.33;;;3.90;;
85156;SDS011;75524;50.698;7.196;2024-03-06T02:00:01;9.63;;;3.30;;
85156;SDS011;75524;50.698;7.196;2024-03-06T02:02:29;7.87;;;3.50;;
85156;SDS011;75524;50.698;7.196;2024-03-06T02:04:56;8.83;;;4.03;;
85156;SDS011;75524;50.698;7.196;2024-03-06T02:07:26;7.60;;;3.50;;
85156;SDS011;75524;50.698;7.196;2024-03-06T02:09:54;7.93;;;3.93;;
85156;SDS011;75524;50.698;7.196;2024-03-06T02:12:21;12.10;;;4.70;;
85156;SDS011;75524;50.698;7.196;2024-03-06T02:14:48;7.77;;;3.30;;
85156;SDS011;75524;50.698;7.196;2024-03-06T02:17:15;11.80;;;4.63;;
85156;SDS011;75524;50.698;7.196;2024-03-06T02:19:42;7.17;;;3.50;;
85156;SDS011;75524;50.698;7.196;2024-03-06T02:22:10;12.27;;;3.80;;
85156;SDS011;75524;50.698;7.196;2024-03-06T02:24:37;9.60;;;3.97;;
85156;SDS011;75524;50.698;7.196;2024-03-06T02:27:05;7.50;;;3.93;;
85156;SDS011;75524;50.698;7.196;2024-03-06T02:29:34;31.07;;;3.77;;
85156;SDS011;75524;50.698;7.196;2024-03-06T02:32:00;10.03;;;3.90;;
85156;SDS011;75524;50.698;7.196;2024-03-06T02:34:30;10.07;;;3.63;;
85156;SDS011;75524;50.698;7.196;2024-03-06T02:36:56;12.70;;;4.67;;
85156;SDS011;75524;50.698;7.196;2024-03-06T02:39:23;16.57;;;7.00;;
85156;SDS011;75524;50.698;7.196;2024-03-06T02:41:49;20.63;;;8.77;;
85156;SDS011;75524;50.698;7.196;2024-03-06T02:44:15;17.80;;;8.07;;
85156;SDS011;75524;50.698;7.196;2024-03-06T02:46:50;26.87;;;9.83;;
85156;SDS011;75524;50.698;7.196;2024-03-06T02:49:17;9.33;;;4.70;;
85156;SDS011;75524;50.698;7.196;2024-03-06T02:51:44;9.47;;;5.00;;
85156;SDS011;75524;50.698;7.196;2024-03-06T02:54:11;9.10;;;4.33;;
85156;SDS011;75524;50.698;7.196;2024-03-06T02:56:37;5.53;;;2.73;;
85156;SDS011;75524;50.698;7.196;2024-03-06T02:59:04;8.33;;;3.10;;
85156;SDS011;75524;50.698;7.196;2024-03-06T03:01:30;5.53;;;3.53;;
85156;SDS011;75524;50.698;7.196;2024-03-06T03:03:57;5.80;;;3.67;;
85156;SDS011;75524;50.698;7.196;2024-03-06T03:06:24;6.33;;;2.87;;
85156;SDS011;75524;50.698;7.196;2024-03-06T03:08:50;9.17;;;3.40;;
85156;SDS011;75524;50.698;7.196;2024-03-06T03:11:17;11.13;;;4.10;;
85156;SDS011;75524;50.698;7.196;2024-03-06T03:13:44;10.30;;;3.93;;
85156;SDS011;75524;50.698;7.196;2024-03-06T03:16:17;6.57;;;3.20;;
85156;SDS011;75524;50.698;7.196;2024-03-06T03:18:45;7.20;;;3.43;;
85156;SDS011;75524;50.698;7.196;2024-03-06T03:21:11;6.33;;;2.90;;
85156;SDS011;75524;50.698;7.196;2024-03-06T03:23:39;3.73;;;2.20;;
85156;SDS011;75524;50.698;7.196;2024-03-06T03:26:06;7.20;;;3.17;;
85156;SDS011;75524;50.698;7.196;2024-03-06T03:28:34;6.70;;;3.20;;
85156;SDS011;75524;50.698;7.196;2024-03-06T03:31:00;9.53;;;2.97;;
85156;SDS011;75524;50.698;7.196;2024-03-06T03:33:26;4.30;;;2.23;;
85156;SDS011;75524;50.698;7.196;2024-03-06T03:35:53;5.37;;;2.83;;
85156;SDS011;75524;50.698;7.196;2024-03-06T03:38:19;4.97;;;2.80;;
85156;SDS011;75524;50.698;7.196;2024-03-06T03:40:46;8.37;;;2.73;;
85156;SDS011;75524;50.698;7.196;2024-03-06T03:43:12;10.90;;;5.17;;
85156;SDS011;75524;50.698;7.196;2024-03-06T03:45:39;9.00;;;3.77;;
85156;SDS011;75524;50.698;7.196;2024-03-06T03:48:05;6.73;;;3.97;;
85156;SDS011;75524;50.698;7.196;2024-03-06T03:50:32;4.77;;;2.67;;
85156;SDS011;75524;50.698;7.196;2024-03-06T03:52:59;4.97;;;2.70;;
85156;SDS011;75524;50.698;7.196;2024-03-06T03:55:27;5.50;;;2.80;;
85156;SDS011;75524;50.698;7.196;2024-03-06T03:57:53;5.80;;;3.00;;
85156;SDS011;75524;50.698;7.196;2024-03-06T04:00:20;10.30;;;3.33;;
85156;SDS011;75524;50.698;7.196;2024-03-06T04:02:49;9.20;;;3.07;;
85156;SDS011;75524;50.698;7.196;2024-03-06T04:05:15;2.17;;;1.83;;
85156;SDS011;75524;50.698;7.196;2024-03-06T04:07:42;3.90;;;2.23;;
85156;SDS011;75524;50.698;7.196;2024-03-06T04:10:09;7.47;;;3.03;;
85156;SDS011;75524;50.698;7.196;2024-03-06T04:12:37;10.23;;;2.80;;
85156;SDS011;75524;50.698;7.196;2024-03-06T04:15:04;5.40;;;2.53;;
85156;SDS011;75524;50.698;7.196;2024-03-06T04:17:31;4.00;;;2.37;;
85156;SDS011;75524;50.698;7.196;2024-03-06T04:19:58;4.60;;;2.67;;
85156;SDS011;75524;50.698;7.196;2024-03-06T04:22:24;7.53;;;3.40;;
85156;SDS011;75524;50.698;7.196;2024-03-06T04:24:51;6.97;;;3.53;;
85156;SDS011;75524;50.698;7.196;2024-03-06T04:27:17;4.07;;;2.87;;
85156;SDS011;75524;50.698;7.196;2024-03-06T04:29:44;4.73;;;2.37;;
85156;SDS011;75524;50.698;7.196;2024-03-06T04:32:10;3.30;;;2.00;;
85156;SDS011;75524;50.698;7.196;2024-03-06T04:34:36;6.00;;;1.90;;
85156;SDS011;75524;50.698;7.196;2024-03-06T04:37:03;6.27;;;3.17;;
85156;SDS011;75524;50.698;7.196;2024-03-06T04:39:29;11.47;;;2.97;;
85156;SDS011;75524;50.698;7.196;2024-03-06T04:41:56;6.80;;;3.07;;
85156;SDS011;75524;50.698;7.196;2024-03-06T04:44:22;13.53;;;5.53;;
85156;SDS011;75524;50.698;7.196;2024-03-06T04:46:52;10.87;;;5.47;;
85156;SDS011;75524;50.698;7.196;2024-03-06T04:49:18;13.47;;;4.97;;
85156;SDS011;75524;50.698;7.196;2024-03-06T04:51:44;4.80;;;2.57;;
85156;SDS011;75524;50.698;7.196;2024-03-06T04:54:11;7.97;;;3.07;;
85156;SDS011;75524;50.698;7.196;2024-03-06T04:56:37;9.97;;;2.37;;
85156;SDS011;75524;50.698;7.196;2024-03-06T04:59:04;10.77;;;3.20;;
85156;SDS011;75524;50.698;7.196;2024-03-06T05:01:30;3.30;;;2.10;;
85156;SDS011;75524;50.698;7.196;2024-03-06T05:03:56;10.97;;;2.97;;
85156;SDS011;75524;50.698;7.196;2024-03-06T05:06:40;8.63;;;2.93;;
85156;SDS011;75524;50.698;7.196;2024-03-06T05:09:25;3.73;;;2.83;;
85156;SDS011;75524;50.698;7.196;2024-03-06T05:12:08;9.10;;;3.37;;
85156;SDS011;75524;50.698;7.196;2024-03-06T05:14:52;7.60;;;2.83;;
85156;SDS011;75524;50.698;7.196;2024-03-06T05:17:37;16.17;;;3.13;;
85156;SDS011;75524;50.698;7.196;2024-03-06T05:20:21;7.67;;;3.20;;
85156;SDS011;75524;50.698;7.196;2024-03-06T05:23:05;19.83;;;4.70;;
85156;SDS011;75524;50.698;7.196;2024-03-06T05:25:49;24.23;;;4.50;;
85156;SDS011;75524;50.698;7.196;2024-03-06T05:28:33;25.27;;;3.77;;
85156;SDS011;75524;50.698;7.196;2024-03-06T05:31:18;10.30;;;4.00;;
85156;SDS011;75524;50.698;7.196;2024-03-06T05:34:03;35.03;;;6.23;;
85156;SDS011;75524;50.698;7.196;2024-03-06T05:36:49;13.77;;;6.67;;
85156;SDS011;75524;50.698;7.196;2024-03-06T05:39:33;23.40;;;4.90;;
85156;SDS011;75524;50.698;7.196;2024-03-06T05:42:21;16.63;;;5.17;;
85156;SDS011;75524;50.698;7.196;2024-03-06T05:45:05;20.20;;;5.10;;
85156;SDS011;75524;50.698;7.196;2024-03-06T05:47:54;71.37;;;7.40;;
85156;SDS011;75524;50.698;7.196;2024-03-06T05:50:38;48.93;;;6.27;;
85156;SDS011;75524;50.698;7.196;2024-03-06T05:53:22;30.90;;;5.70;;
85156;SDS011;75524;50.698;7.196;2024-03-06T05:56:07;53.47;;;6.50;;
85156;SDS011;75524;50.698;7.196;2024-03-06T05:58:51;33.93;;;4.07;;
85156;SDS011;75524;50.698;7.196;2024-03-06T06:01:17;103.20;;;6.70;;
85156;SDS011;75524;50.698;7.196;2024-03-06T06:03:48;54.20;;;4.83;;
85156;SDS011;75524;50.698;7.196;2024-03-06T06:06:15;53.43;;;5.30;;
85156;SDS011;75524;50.698;7.196;2024-03-06T06:08:41;80.57;;;6.30;;
85156;SDS011;75524;50.698;7.196;2024-03-06T06:11:10;80.80;;;8.70;;
85156;SDS011;75524;50.698;7.196;2024-03-06T06:13:38;48.70;;;5.73;;
85156;SDS011;75524;50.698;7.196;2024-03-06T06:16:05;9.20;;;3.43;;
85156;SDS011;75524;50.698;7.196;2024-03-06T06:18:33;28.10;;;6.23;;
85156;SDS011;75524;50.698;7.196;2024-03-06T06:20:59;48.80;;;5.93;;
85156;SDS011;75524;50.698;7.196;2024-03-06T06:23:26;28.27;;;5.13;;
85156;SDS011;75524;50.698;7.196;2024-03-06T06:25:52;46.43;;;7.43;;
85156;SDS011;75524;50.698;7.196;2024-03-06T06:28:19;25.53;;;6.07;;
85156;SDS011;75524;50.698;7.196;2024-03-06T06:30:45;40.53;;;6.67;;
85156;SDS011;75524;50.698;7.196;2024-03-06T06:33:11;19.87;;;6.67;;
85156;SDS011;75524;50.698;7.196;2024-03-06T06:35:39;17.80;;;6.00;;
85156;SDS011;75524;50.698;7.196;2024-03-06T06:38:05;22.93;;;5.30;;
85156;SDS011;75524;50.698;7.196;2024-03-06T06:40:32;13.90;;;5.13;;
85156;SDS011;75524;50.698;7.196;2024-03-06T06:42:59;13.80;;;4.37;;
85156;SDS011;75524;50.698;7.196;2024-03-06T06:45:25;15.10;;;5.47;;
85156;SDS011;75524;50.698;7.196;2024-03-06T06:47:52;10.20;;;5.03;;
85156;SDS011;75524;50.698;7.196;2024-03-06T06:50:19;8.57;;;3.80;;
85156;SDS011;75524;50.698;7.196;2024-03-06T06:52:49;19.77;;;4.87;;
85156;SDS011;75524;50.698;7.196;2024-03-06T06:55:15;18.67;;;5.27;;
85156;SDS011;75524;50.698;7.196;2024-03-06T06:57:42;23.73;;;5.03;;
85156;SDS011;75524;50.698;7.196;2024-03-06T07:00:08;59.40;;;6.83;;
85156;SDS011;75524;50.698;7.196;2024-03-06T07:02:41;21.27;;;4.60;;
85156;SDS011;75524;50.698;7.196;2024-03-06T07:05:08;21.57;;;4.50;;
85156;SDS011;75524;50.698;7.196;2024-03-06T07:07:36;7.87;;;3.83;;
85156;SDS011;75524;50.698;7.196;2024-03-06T07:10:03;18.63;;;5.03;;
85156;SDS011;75524;50.698;7.196;2024-03-06T07:12:30;15.70;;;5.23;;
85156;SDS011;75524;50.698;7.196;2024-03-06T07:14:57;9.17;;;4.37;;
85156;SDS011;75524;50.698;7.196;2024-03-06T07:17:24;11.73;;;5.03;;
85156;SDS011;75524;50.698;7.196;2024-03-06T07:19:50;14.17;;;6.10;;
85156;SDS011;75524;50.698;7.196;2024-03-06T07:22:18;16.50;;;6.33;;
85156;SDS011;75524;50.698;7.196;2024-03-06T07:24:45;9.57;;;4.73;;
85156;SDS011;75524;50.698;7.196;2024-03-06T07:27:12;10.27;;;4.73;;
85156;SDS011;75524;50.698;7.196;2024-03-06T07:29:38;8.87;;;3.53;;
85156;SDS011;75524;50.698;7.196;2024-03-06T07:32:04;9.17;;;4.10;;
85156;SDS011;75524;50.698;7.196;2024-03-06T07:38:21;9.87;;;4.77;;
85156;SDS011;75524;50.698;7.196;2024-03-06T07:40:48;12.63;;;6.60;;
85156;SDS011;75524;50.698;7.196;2024-03-06T07:43:14;16.13;;;7.23;;
85156;SDS011;75524;50.698;7.196;2024-03-06T07:45:41;13.90;;;5.70;;
85156;SDS011;75524;50.698;7.196;2024-03-06T07:48:07;18.30;;;7.87;;
85156;SDS011;75524;50.698;7.196;2024-03-06T07:50:35;13.50;;;6.23;;
85156;SDS011;75524;50.698;7.196;2024-03-06T07:53:02;16.20;;;7.13;;
85156;SDS011;75524;50.698;7.196;2024-03-06T07:55:28;15.40;;;6.60;;
85156;SDS011;75524;50.698;7.196;2024-03-06T07:57:55;13.47;;;5.50;;
85156;SDS011;75524;50.698;7.196;2024-03-06T08:00:21;8.57;;;4.30;;
85156;SDS011;75524;50.698;7.196;2024-03-06T08:02:49;12.07;;;5.33;;
85156;SDS011;75524;50.698;7.196;2024-03-06T08:05:16;10.17;;;4.60;;
85156;SDS011;75524;50.698;7.196;2024-03-06T08:07:42;8.43;;;4.57;;
85156;SDS011;75524;50.698;7.196;2024-03-06T08:10:14;19.27;;;6.17;;
85156;SDS011;75524;50.698;7.196;2024-03-06T08:12:41;16.03;;;6.60;;
85156;SDS011;75524;50.698;7.196;2024-03-06T08:15:09;13.90;;;5.53;;
85156;SDS011;75524;50.698;7.196;2024-03-06T08:17:38;17.33;;;6.23;;
85156;SDS011;75524;50.698;7.196;2024-03-06T08:20:05;19.13;;;7.53;;
85156;SDS011;75524;50.698;7.196;2024-03-06T08:22:40;19.53;;;7.43;;
85156;SDS011;75524;50.698;7.196;2024-03-06T08:25:08;21.37;;;8.53;;
85156;SDS011;75524;50.698;7.196;2024-03-06T08:27:36;15.77;;;6.57;;
85156;SDS011;75524;50.698;7.196;2024-03-06T08:30:03;13.57;;;5.83;;
85156;SDS011;75524;50.698;7.196;2024-03-06T08:32:31;16.23;;;6.73;;
85156;SDS011;75524;50.698;7.196;2024-03-06T08:34:59;12.90;;;5.60;;
85156;SDS011;75524;50.698;7.196;2024-03-06T08:37:25;13.33;;;5.57;;
85156;SDS011;75524;50.698;7.196;2024-03-06T08:39:52;13.97;;;5.90;;
85156;SDS011;75524;50.698;7.196;2024-03-06T08:42:18;20.07;;;7.83;;
85156;SDS011;75524;50.698;7.196;2024-03-06T08:44:45;17.50;;;7.67;;
85156;SDS011;75524;50.698;7.196;2024-03-06T08:47:11;17.73;;;6.63;;
85156;SDS011;75524;50.698;7.196;2024-03-06T08:49:38;25.67;;;7.73;;
85156;SDS011;75524;50.698;7.196;2024-03-06T08:52:04;29.97;;;9.07;;
85156;SDS011;75524;50.698;7.196;2024-03-06T08:54:31;18.90;;;7.13;;
85156;SDS011;75524;50.698;7.196;2024-03-06T08:56:58;23.23;;;9.50;;
85156;SDS011;75524;50.698;7.196;2024-03-06T08:59:25;21.83;;;8.57;;
85156;SDS011;75524;50.698;7.196;2024-03-06T09:01:52;27.20;;;9.10;;
85156;SDS011;75524;50.698;7.196;2024-03-06T09:04:20;21.00;;;8.20;;
85156;SDS011;75524;50.698;7.196;2024-03-06T09:06:46;18.10;;;7.70;;
85156;SDS011;75524;50.698;7.196;2024-03-06T09:09:13;23.73;;;9.23;;
85156;SDS011;75524;50.698;7.196;2024-03-06T09:11:41;21.00;;;8.40;;
85156;SDS011;75524;50.698;7.196;2024-03-06T09:14:10;22.50;;;8.07;;
85156;SDS011;75524;50.698;7.196;2024-03-06T09:16:37;24.33;;;7.30;;
85156;SDS011;75524;50.698;7.196;2024-03-06T09:19:03;21.33;;;9.23;;
85156;SDS011;75524;50.698;7.196;2024-03-06T09:21:30;24.23;;;8.57;;
85156;SDS011;75524;50.698;7.196;2024-03-06T09:23:56;18.87;;;7.50;;
85156;SDS011;75524;50.698;7.196;2024-03-06T09:26:22;17.00;;;6.93;;
85156;SDS011;75524;50.698;7.196;2024-03-06T09:28:49;14.10;;;6.73;;
85156;SDS011;75524;50.698;7.196;2024-03-06T09:31:15;16.93;;;6.10;;
85156;SDS011;75524;50.698;7.196;2024-03-06T09:33:42;16.63;;;5.63;;
85156;SDS011;75524;50.698;7.196;2024-03-06T09:36:11;13.43;;;4.60;;
85156;SDS011;75524;50.698;7.196;2024-03-06T09:38:39;10.00;;;4.97;;
85156;SDS011;75524;50.698;7.196;2024-03-06T09:41:07;7.93;;;3.90;;
85156;SDS011;75524;50.698;7.196;2024-03-06T09:43:34;10.23;;;4.40;;
85156;SDS011;75524;50.698;7.196;2024-03-06T09:46:01;8.83;;;3.67;;
85156;SDS011;75524;50.698;7.196;2024-03-06T09:48:30;9.90;;;4.37;;
85156;SDS011;75524;50.698;7.196;2024-03-06T09:50:57;6.43;;;3.50;;
85156;SDS011;75524;50.698;7.196;2024-03-06T09:53:27;10.07;;;4.93;;
85156;SDS011;75524;50.698;7.196;2024-03-06T09:55:54;17.53;;;4.87;;
85156;SDS011;75524;50.698;7.196;2024-03-06T09:58:23;15.23;;;5.47;;
85156;SDS011;75524;50.698;7.196;2024-03-06T10:00:50;9.77;;;4.50;;
85156;SDS011;75524;50.698;7.196;2024-03-06T10:03:17;10.00;;;4.57;;
85156;SDS011;75524;50.698;7.196;2024-03-06T10:05:44;10.73;;;5.07;;
85156;SDS011;75524;50.698;7.196;2024-03-06T10:08:11;10.03;;;4.80;;
85156;SDS011;75524;50.698;7.196;2024-03-06T10:10:38;6.00;;;3.40;;
85156;SDS011;75524;50.698;7.196;2024-03-06T10:13:04;6.03;;;3.23;;
85156;SDS011;75524;50.698;7.196;2024-03-06T10:15:30;8.40;;;3.23;;
85156;SDS011;75524;50.698;7.196;2024-03-06T10:18:13;4.80;;;2.90;;
85156;SDS011;75524;50.698;7.196;2024-03-06T10:20:41;8.63;;;3.17;;
85156;SDS011;75524;50.698;7.196;2024-03-06T10:23:09;9.63;;;3.93;;
85156;SDS011;75524;50.698;7.196;2024-03-06T10:25:36;6.50;;;3.37;;
85156;SDS011;75524;50.698;7.196;2024-03-06T10:30:36;5.17;;;3.00;;
85156;SDS011;75524;50.698;7.196;2024-03-06T10:33:10;5.43;;;2.90;;
85156;SDS011;75524;50.698;7.196;2024-03-06T10:35:41;6.43;;;3.63;;
85156;SDS011;75524;50.698;7.196;2024-03-06T10:38:11;7.53;;;4.13;;
85156;SDS011;75524;50.698;7.196;2024-03-06T10:40:38;8.30;;;4.27;;
85156;SDS011;75524;50.698;7.196;2024-03-06T10:43:09;5.60;;;3.70;;
85156;SDS011;75524;50.698;7.196;2024-03-06T10:45:39;6.70;;;3.47;;
85156;SDS011;75524;50.698;7.196;2024-03-06T10:48:15;4.83;;;3.47;;
85156;SDS011;75524;50.698;7.196;2024-03-06T10:50:44;6.63;;;3.90;;
85156;SDS011;75524;50.698;7.196;2024-03-06T10:53:13;6.30;;;3.77;;
85156;SDS011;75524;50.698;7.196;2024-03-06T10:55:49;4.90;;;3.00;;
85156;SDS011;75524;50.698;7.196;2024-03-06T10:58:17;7.63;;;3.67;;
85156;SDS011;75524;50.698;7.196;2024-03-06T11:00:46;7.13;;;3.93;;
85156;SDS011;75524;50.698;7.196;2024-03-06T11:03:16;6.63;;;3.37;;
85156;SDS011;75524;50.698;7.196;2024-03-06T11:05:43;9.17;;;3.53;;
85156;SDS011;75524;50.698;7.196;2024-03-06T11:08:13;6.20;;;3.53;;
85156;SDS011;75524;50.698;7.196;2024-03-06T11:10:41;17.23;;;4.37;;
85156;SDS011;75524;50.698;7.196;2024-03-06T11:13:24;7.87;;;3.40;;
85156;SDS011;75524;50.698;7.196;2024-03-06T11:15:53;12.13;;;4.00;;
85156;SDS011;75524;50.698;7.196;2024-03-06T11:23:28;11.77;;;4.53;;
85156;SDS011;75524;50.698;7.196;2024-03-06T11:26:02;10.57;;;4.27;;
85156;SDS011;75524;50.698;7.196;2024-03-06T11:28:30;7.07;;;4.10;;
85156;SDS011;75524;50.698;7.196;2024-03-06T11:30:58;8.60;;;4.93;;
85156;SDS011;75524;50.698;7.196;2024-03-06T11:38:39;7.80;;;3.97;;
85156;SDS011;75524;50.698;7.196;2024-03-06T11:41:07;10.67;;;4.60;;
85156;SDS011;75524;50.698;7.196;2024-03-06T11:43:41;9.83;;;4.77;;
85156;SDS011;75524;50.698;7.196;2024-03-06T11:46:09;10.17;;;4.70;;
85156;SDS011;75524;50.698;7.196;2024-03-06T11:48:36;9.67;;;4.60;;
85156;SDS011;75524;50.698;7.196;2024-03-06T11:51:03;11.53;;;5.30;;
85156;SDS011;75524;50.698;7.196;2024-03-06T11:53:30;9.80;;;4.87;;
85156;SDS011;75524;50.698;7.196;2024-03-06T11:56:00;12.77;;;5.83;;
85156;SDS011;75524;50.698;7.196;2024-03-06T11:58:27;15.07;;;5.60;;
85156;SDS011;75524;50.698;7.196;2024-03-06T12:00:53;13.37;;;5.13;;
85156;SDS011;75524;50.698;7.196;2024-03-06T12:03:20;9.63;;;5.27;;
85156;SDS011;75524;50.698;7.196;2024-03-06T12:05:50;13.60;;;5.47;;
85156;SDS011;75524;50.698;7.196;2024-03-06T12:08:16;10.97;;;5.30;;
85156;SDS011;75524;50.698;7.196;2024-03-06T12:10:43;10.40;;;5.23;;
85156;SDS011;75524;50.698;7.196;2024-03-06T12:13:12;11.03;;;5.03;;
85156;SDS011;75524;50.698;7.196;2024-03-06T12:15:38;13.33;;;5.43;;
85156;SDS011;75524;50.698;7.196;2024-03-06T12:18:08;14.47;;;5.60;;
85156;SDS011;75524;50.698;7.196;2024-03-06T12:20:34;13.37;;;5.80;;
85156;SDS011;75524;50.698;7.196;2024-03-06T12:23:02;16.30;;;6.03;;
85156;SDS011;75524;50.698;7.196;2024-03-06T12:25:28;12.67;;;5.57;;
85156;SDS011;75524;50.698;7.196;2024-03-06T12:27:55;9.60;;;5.53;;
85156;SDS011;75524;50.698;7.196;2024-03-06T12:30:44;17.63;;;6.17;;
85156;SDS011;75524;50.698;7.196;2024-03-06T12:33:10;12.67;;;6.00;;
85156;SDS011;75524;50.698;7.196;2024-03-06T12:35:42;11.20;;;6.13;;
85156;SDS011;75524;50.698;7.196;2024-03-06T12:38:13;14.10;;;6.37;;
85156;SDS011;75524;50.698;7.196;2024-03-06T12:40:40;12.27;;;5.80;;
85156;SDS011;75524;50.698;7.196;2024-03-06T12:43:08;10.80;;;5.33;;
85156;SDS011;75524;50.698;7.196;2024-03-06T12:45:35;11.77;;;5.33;;
85156;SDS011;75524;50.698;7.196;2024-03-06T12:48:02;13.83;;;5.57;;
85156;SDS011;75524;50.698;7.196;2024-03-06T12:50:31;12.57;;;5.87;;
85156;SDS011;75524;50.698;7.196;2024-03-06T12:52:58;15.80;;;5.93;;
85156;SDS011;75524;50.698;7.196;2024-03-06T12:55:24;11.50;;;6.07;;
85156;SDS011;75524;50.698;7.196;2024-03-06T12:57:52;13.27;;;4.73;;
85156;SDS011;75524;50.698;7.196;2024-03-06T13:00:18;12.00;;;5.47;;
85156;SDS011;75524;50.698;7.196;2024-03-06T13:02:45;11.50;;;5.43;;
85156;SDS011;75524;50.698;7.196;2024-03-06T13:05:12;10.50;;;5.13;;
85156;SDS011;75524;50.698;7.196;2024-03-06T13:07:39;9.20;;;4.67;;
85156;SDS011;75524;50.698;7.196;2024-03-06T13:10:08;11.77;;;5.10;;
85156;SDS011;75524;50.698;7.196;2024-03-06T13:12:37;7.83;;;4.30;;
85156;SDS011;75524;50.698;7.196;2024-03-06T13:15:04;10.17;;;4.00;;
85156;SDS011;75524;50.698;7.196;2024-03-06T13:17:33;9.07;;;3.90;;
85156;SDS011;75524;50.698;7.196;2024-03-06T13:20:00;11.27;;;4.40;;
85156;SDS011;75524;50.698;7.196;2024-03-06T13:22:27;8.93;;;4.33;;
85156;SDS011;75524;50.698;7.196;2024-03-06T13:24:53;12.47;;;4.20;;
85156;SDS011;75524;50.698;7.196;2024-03-06T13:27:20;12.27;;;4.90;;
85156;SDS011;75524;50.698;7.196;2024-03-06T13:29:46;9.50;;;4.27;;
85156;SDS011;75524;50.698;7.196;2024-03-06T13:32:13;11.73;;;4.73;;
85156;SDS011;75524;50.698;7.196;2024-03-06T13:34:39;12.10;;;4.80;;
85156;SDS011;75524;50.698;7.196;2024-03-06T13:37:06;10.20;;;4.90;;
85156;SDS011;75524;50.698;7.196;2024-03-06T13:39:36;8.80;;;4.57;;
85156;SDS011;75524;50.698;7.196;2024-03-06T13:42:02;10.67;;;5.30;;
85156;SDS011;75524;50.698;7.196;2024-03-06T13:44:29;11.73;;;4.93;;
85156;SDS011;75524;50.698;7.196;2024-03-06T13:46:55;8.73;;;4.70;;
85156;SDS011;75524;50.698;7.196;2024-03-06T13:52:21;9.37;;;4.93;;
85156;SDS011;75524;50.698;7.196;2024-03-06T13:54:51;7.87;;;3.87;;
85156;SDS011;75524;50.698;7.196;2024-03-06T13:57:17;8.20;;;3.80;;
85156;SDS011;75524;50.698;7.196;2024-03-06T13:59:44;13.30;;;3.10;;
85156;SDS011;75524;50.698;7.196;2024-03-06T14:02:10;11.07;;;2.93;;
85156;SDS011;75524;50.698;7.196;2024-03-06T14:04:37;5.43;;;2.73;;
85156;SDS011;75524;50.698;7.196;2024-03-06T14:07:03;6.57;;;2.87;;
85156;SDS011;75524;50.698;7.196;2024-03-06T14:09:30;9.57;;;3.23;;
85156;SDS011;75524;50.698;7.196;2024-03-06T14:11:57;6.57;;;3.27;;
85156;SDS011;75524;50.698;7.196;2024-03-06T14:14:23;6.50;;;3.47;;
85156;SDS011;75524;50.698;7.196;2024-03-06T14:16:50;7.33;;;4.03;;
85156;SDS011;75524;50.698;7.196;2024-03-06T14:19:17;7.60;;;3.50;;
85156;SDS011;75524;50.698;7.196;2024-03-06T14:21:43;7.83;;;3.57;;
85156;SDS011;75524;50.698;7.196;2024-03-06T14:24:10;7.13;;;3.00;;
85156;SDS011;75524;50.698;7.196;2024-03-06T14:26:36;6.17;;;3.30;;
85156;SDS011;75524;50.698;7.196;2024-03-06T14:29:05;8.33;;;3.80;;
85156;SDS011;75524;50.698;7.196;2024-03-06T14:31:36;10.00;;;3.97;;
85156;SDS011;75524;50.698;7.196;2024-03-06T14:34:02;5.60;;;3.03;;
85156;SDS011;75524;50.698;7.196;2024-03-06T14:36:32;9.80;;;3.10;;
85156;SDS011;75524;50.698;7.196;2024-03-06T14:39:00;10.13;;;2.90;;
85156;SDS011;75524;50.698;7.196;2024-03-06T14:41:26;11.13;;;4.73;;
85156;SDS011;75524;50.698;7.196;2024-03-06T14:43:53;8.03;;;3.30;;
85156;SDS011;75524;50.698;7.196;2024-03-06T14:46:20;3.47;;;2.20;;
85156;SDS011;75524;50.698;7.196;2024-03-06T14:48:46;7.90;;;3.30;;
85156;SDS011;75524;50.698;7.196;2024-03-06T14:51:13;5.20;;;2.47;;
85156;SDS011;75524;50.698;7.196;2024-03-06T14:53:39;6.23;;;3.00;;
85156;SDS011;75524;50.698;7.196;2024-03-06T14:56:06;3.27;;;2.03;;
85156;SDS011;75524;50.698;7.196;2024-03-06T14:58:33;3.80;;;2.17;;
85156;SDS011;75524;50.698;7.196;2024-03-06T15:00:59;5.23;;;2.70;;
85156;SDS011;75524;50.698;7.196;2024-03-06T15:03:26;6.00;;;2.53;;
85156;SDS011;75524;50.698;7.196;2024-03-06T15:05:52;7.70;;;2.90;;
85156;SDS011;75524;50.698;7.196;2024-03-06T15:08:19;5.73;;;2.80;;